createdAt,value
2022-11-05T00:00:44.327Z,98931.91
2022-11-05T00:01:35.315Z,98935.41
2022-11-05T00:02:25.744Z,98932.69
2022-11-05T00:03:16.283Z,98937.06
2022-11-05T00:04:06.991Z,98936.53
2022-11-05T00:04:57.583Z,98941.97
2022-11-05T00:05:47.959Z,98931.03
2022-11-05T00:06:38.991Z,98937.62
2022-11-05T00:07:39.591Z,98936.53
2022-11-05T00:08:30.484Z,98934.84
2022-11-05T00:09:20.909Z,98937.84
2022-11-05T00:10:05.299Z,98941.94
2022-11-05T00:10:38.829Z,98937.62
2022-11-05T00:11:16.858Z,98939.13
2022-11-05T00:12:09.554Z,98940.94
2022-11-05T00:12:59.881Z,98941.25
2022-11-05T00:13:50.182Z,98941.50
2022-11-05T00:14:40.440Z,98938.88
2022-11-05T00:15:30.837Z,98942.50
2022-11-05T00:16:21.258Z,98933.87
2022-11-05T00:16:53.438Z,98939.41
2022-11-05T00:17:25.400Z,98931.03
2022-11-05T00:17:57.201Z,98927.88
2022-11-05T00:18:29.471Z,98933.09
2022-11-05T00:19:07.031Z,98941.50
2022-11-05T00:19:38.857Z,98940.69
2022-11-05T00:20:13.701Z,98942.59
2022-11-05T00:20:45.597Z,98936.88
2022-11-05T00:21:40.676Z,98938.06
2022-11-05T00:22:31.517Z,98933.66
2022-11-05T00:23:23.676Z,98935.78
2022-11-05T00:24:27.740Z,98939.41
2022-11-05T00:25:14.749Z,98934.28
2022-11-05T00:25:55.296Z,98935.84
2022-11-05T00:26:27.096Z,98926.87
2022-11-05T00:26:59.507Z,98930.41
2022-11-05T00:27:33.469Z,98925.38
2022-11-05T00:28:05.308Z,98926.66
2022-11-05T00:28:37.930Z,98926.19
2022-11-05T00:29:10.532Z,98934.03
2022-11-05T00:29:43.358Z,98921.72
2022-11-05T00:30:18.540Z,98921.59
2022-11-05T00:30:50.488Z,98927.59
2022-11-05T00:31:22.363Z,98924.03
2022-11-05T00:31:54.226Z,98921.50
2022-11-05T00:32:26.093Z,98925.16
2022-11-05T00:33:02.607Z,98925.94
2022-11-05T00:33:34.523Z,98922.78
2022-11-05T00:34:06.389Z,98921.41
2022-11-05T00:34:38.228Z,98924.03
2022-11-05T00:35:10.317Z,98918.81
2022-11-05T00:35:42.136Z,98920.38
2022-11-05T00:36:14.067Z,98919.84
2022-11-05T00:36:45.989Z,98921.13
2022-11-05T00:37:17.793Z,98930.75
2022-11-05T00:37:50.601Z,98924.34
2022-11-05T00:38:22.984Z,98925.44
2022-11-05T00:38:54.840Z,98925.69
2022-11-05T00:39:26.676Z,98930.41
2022-11-05T00:39:58.689Z,98932.84
2022-11-05T00:40:30.627Z,98937.41
2022-11-05T00:41:02.560Z,98934.97
2022-11-05T00:41:34.435Z,98938.25
2022-11-05T00:42:24.801Z,98937.81
2022-11-05T00:43:15.533Z,98939.00
2022-11-05T00:44:06.214Z,98931.16
2022-11-05T00:44:56.666Z,98933.06
2022-11-05T00:45:29.734Z,98938.59
2022-11-05T00:46:01.641Z,98935.28
2022-11-05T00:46:33.471Z,98937.50
2022-11-05T00:47:37.850Z,98932.28
2022-11-05T00:48:28.182Z,98938.91
2022-11-05T00:49:19.087Z,98940.78
2022-11-05T00:49:50.923Z,98932.91
2022-11-05T00:50:23.311Z,98942.25
2022-11-05T00:50:55.224Z,98951.59
2022-11-05T00:51:27.072Z,98951.69
2022-11-05T00:52:17.591Z,98945.91
2022-11-05T00:53:00.475Z,98943.28
2022-11-05T00:53:32.639Z,98953.19
2022-11-05T00:54:04.916Z,98953.97
2022-11-05T00:54:36.736Z,98952.25
2022-11-05T00:55:08.664Z,98948.84
2022-11-05T00:55:42.489Z,98957.00
2022-11-05T00:56:14.319Z,98954.94
2022-11-05T00:56:46.118Z,98956.53
2022-11-05T00:57:17.959Z,98950.50
2022-11-05T00:57:50.113Z,98959.63
2022-11-05T00:58:23.245Z,98948.94
2022-11-05T00:58:56.328Z,98941.66
2022-11-05T00:59:28.497Z,98948.13
2022-11-05T01:00:00.378Z,98951.22
2022-11-05T01:00:33.808Z,98951.63
2022-11-05T01:01:06.265Z,98961.12
2022-11-05T01:01:38.252Z,98952.16
2022-11-05T01:02:10.302Z,98954.84
2022-11-05T01:02:42.425Z,98949.72
2022-11-05T01:03:16.585Z,98958.03
2022-11-05T01:03:51.631Z,98951.75
2022-11-05T01:04:23.652Z,98952.72
2022-11-05T01:04:55.769Z,98951.13
2022-11-05T01:05:28.629Z,98948.63
2022-11-05T01:06:20.676Z,98952.41
2022-11-05T01:06:52.479Z,98946.19
2022-11-05T01:07:24.294Z,98952.91
2022-11-05T01:07:56.313Z,98948.78
2022-11-05T01:08:28.352Z,98947.44
2022-11-05T01:09:00.199Z,98943.13
2022-11-05T01:09:32.079Z,98937.97
2022-11-05T01:10:04.497Z,98943.66
2022-11-05T01:10:44.126Z,98944.91
2022-11-05T01:11:34.351Z,98931.31
2022-11-05T01:12:06.290Z,98943.81
2022-11-05T01:12:38.112Z,98942.59
2022-11-05T01:13:13.159Z,98940.78
2022-11-05T01:13:45.298Z,98938.16
2022-11-05T01:14:17.299Z,98936.19
2022-11-05T01:14:49.181Z,98937.06
2022-11-05T01:15:21.965Z,98931.84
2022-11-05T01:15:54.437Z,98938.91
2022-11-05T01:16:26.262Z,98933.63
2022-11-05T01:16:58.098Z,98933.97
2022-11-05T01:17:29.959Z,98931.44
2022-11-05T01:18:01.802Z,98928.59
2022-11-05T01:18:33.819Z,98922.81
2022-11-05T01:19:07.483Z,98925.56
2022-11-05T01:19:39.519Z,98931.81
2022-11-05T01:20:12.300Z,98929.66
2022-11-05T01:20:44.585Z,98929.88
2022-11-05T01:21:16.802Z,98932.47
2022-11-05T01:21:48.679Z,98933.84
2022-11-05T01:22:20.532Z,98931.31
2022-11-05T01:22:52.459Z,98926.78
2022-11-05T01:23:24.334Z,98924.94
2022-11-05T01:23:56.154Z,98924.47
2022-11-05T01:24:28.140Z,98926.37
2022-11-05T01:25:00.081Z,98928.91
2022-11-05T01:25:31.928Z,98934.72
2022-11-05T01:26:04.102Z,98927.00
2022-11-05T01:26:35.930Z,98924.28
2022-11-05T01:27:07.856Z,98931.72
2022-11-05T01:27:40.003Z,98931.25
2022-11-05T01:28:11.931Z,98933.87
2022-11-05T01:28:43.831Z,98929.81
2022-11-05T01:29:15.784Z,98932.84
2022-11-05T01:29:47.685Z,98930.91
2022-11-05T01:30:19.644Z,98925.00
2022-11-05T01:30:56.533Z,98935.44
2022-11-05T01:31:29.184Z,98929.22
2022-11-05T01:32:01.021Z,98924.19
2022-11-05T01:32:33.822Z,98931.53
2022-11-05T01:33:05.917Z,98923.91
2022-11-05T01:33:37.747Z,98925.66
2022-11-05T01:34:09.588Z,98927.22
2022-11-05T01:34:41.440Z,98922.97
2022-11-05T01:35:15.713Z,98925.28
2022-11-05T01:35:50.124Z,98926.66
2022-11-05T01:36:22.044Z,98925.66
2022-11-05T01:36:54.161Z,98932.44
2022-11-05T01:37:25.971Z,98928.84
2022-11-05T01:37:57.819Z,98925.75
2022-11-05T01:38:29.639Z,98930.72
2022-11-05T01:39:01.976Z,98942.44
2022-11-05T01:39:33.913Z,98927.03
2022-11-05T01:40:07.652Z,98932.25
2022-11-05T01:40:42.884Z,98931.00
2022-11-05T01:41:14.847Z,98937.47
2022-11-05T01:41:47.049Z,98931.94
2022-11-05T01:42:25.093Z,98938.84
2022-11-05T01:42:56.931Z,98942.37
2022-11-05T01:44:05.280Z,98941.56
2022-11-05T01:44:52.302Z,98941.94
2022-11-05T01:45:28.534Z,98953.75
2022-11-05T01:46:00.750Z,98953.94
2022-11-05T01:46:42.912Z,98951.69
2022-11-05T01:47:44.411Z,98951.13
2022-11-05T01:48:27.355Z,98958.94
2022-11-05T01:49:10.590Z,98959.84
2022-11-05T01:49:42.444Z,98954.88
2022-11-05T01:50:41.926Z,98958.84
2022-11-05T01:51:17.483Z,98962.38
2022-11-05T01:51:51.336Z,98966.13
2022-11-05T01:52:24.519Z,98967.25
2022-11-05T01:53:11.947Z,98957.13
2022-11-05T01:53:52.921Z,98952.03
2022-11-05T01:54:29.586Z,98951.47
2022-11-05T01:55:03.023Z,98952.03
2022-11-05T01:55:39.567Z,98945.53
2022-11-05T01:56:36.582Z,98940.66
2022-11-05T01:57:11.105Z,98940.31
2022-11-05T01:57:42.903Z,98926.72
2022-11-05T01:58:19.497Z,98932.06
2022-11-05T01:59:06.338Z,98924.22
2022-11-05T01:59:43.293Z,98922.53
2022-11-05T02:00:16.889Z,98927.63
2022-11-05T02:00:49.085Z,98925.91
2022-11-05T02:01:21.381Z,98921.47
2022-11-05T02:01:54.307Z,98926.63
2022-11-05T02:02:27.042Z,98930.00
2022-11-05T02:02:59.126Z,98931.38
2022-11-05T02:03:31.889Z,98935.03
2022-11-05T02:04:10.111Z,98939.91
2022-11-05T02:04:51.943Z,98936.28
2022-11-05T02:05:23.955Z,98936.28
2022-11-05T02:05:57.627Z,98943.22
2022-11-05T02:06:31.880Z,98946.84
2022-11-05T02:07:05.597Z,98948.87
2022-11-05T02:07:37.482Z,98949.25
2022-11-05T02:08:22.455Z,98950.81
2022-11-05T02:09:06.494Z,98951.38
2022-11-05T02:09:59.289Z,98950.50
2022-11-05T02:10:32.042Z,98957.66
2022-11-05T02:11:04.119Z,98956.37
2022-11-05T02:11:35.965Z,98959.53
2022-11-05T02:12:09.474Z,98954.69
2022-11-05T02:12:44.899Z,98958.28
2022-11-05T02:13:16.771Z,98955.72
2022-11-05T02:13:49.824Z,98961.94
2022-11-05T02:14:21.952Z,98961.16
2022-11-05T02:14:53.870Z,98955.59
2022-11-05T02:15:55.805Z,98958.22
2022-11-05T02:17:03.725Z,98958.53
2022-11-05T02:17:51.352Z,98966.28
2022-11-05T02:18:29.173Z,98963.75
2022-11-05T02:19:18.868Z,98962.50
2022-11-05T02:20:31.430Z,98968.78
2022-11-05T02:21:34.793Z,98963.44
2022-11-05T02:22:34.422Z,98962.50
2022-11-05T02:23:09.499Z,98969.44
2022-11-05T02:23:59.833Z,98960.47
2022-11-05T02:25:02.024Z,98958.09
2022-11-05T02:25:51.842Z,98962.88
2022-11-05T02:26:45.154Z,98959.00
2022-11-05T02:27:26.356Z,98961.94
2022-11-05T02:28:29.300Z,98961.94
2022-11-05T02:29:07.047Z,98966.72
2022-11-05T02:29:57.853Z,98958.91
2022-11-05T02:30:41.366Z,98969.56
2022-11-05T02:31:36.434Z,98967.72
2022-11-05T02:32:31.728Z,98977.03
2022-11-05T02:33:29.846Z,98973.19
2022-11-05T02:34:27.330Z,98971.59
2022-11-05T02:35:16.187Z,98973.84
2022-11-05T02:36:25.215Z,98975.56
2022-11-05T02:37:21.813Z,98977.16
2022-11-05T02:38:06.500Z,98979.87
2022-11-05T02:38:41.101Z,98969.88
2022-11-05T02:39:40.617Z,98974.41
2022-11-05T02:40:19.209Z,98966.94
2022-11-05T02:41:08.738Z,98972.37
2022-11-05T02:41:52.939Z,98966.84
2022-11-05T02:42:52.390Z,98969.44
2022-11-05T02:43:29.494Z,98962.88
2022-11-05T02:44:28.320Z,98959.09
2022-11-05T02:45:31.994Z,98955.56
2022-11-05T02:46:12.337Z,98959.69
2022-11-05T02:47:28.778Z,98951.97
2022-11-05T02:48:14.088Z,98957.41
2022-11-05T02:48:50.365Z,98960.69
2022-11-05T02:49:56.227Z,98960.59
2022-11-05T02:50:37.316Z,98965.94
2022-11-05T02:51:20.660Z,98968.09
2022-11-05T02:51:59.373Z,98964.59
2022-11-05T02:53:00.396Z,98965.69
2022-11-05T02:53:42.770Z,98969.22
2022-11-05T02:54:24.611Z,98972.06
2022-11-05T02:55:08.711Z,98969.88
2022-11-05T02:55:59.326Z,98971.00
2022-11-05T02:56:35.443Z,98978.28
2022-11-05T02:57:07.302Z,98972.50
2022-11-05T02:57:44.823Z,98976.81
2022-11-05T02:58:16.936Z,98975.56
2022-11-05T02:58:49.135Z,98975.44
2022-11-05T02:59:21.001Z,98981.66
2022-11-05T03:00:07.168Z,98968.28
2022-11-05T03:00:57.818Z,98977.94
2022-11-05T03:01:29.856Z,98970.00
2022-11-05T03:02:03.427Z,98978.50
2022-11-05T03:02:35.787Z,98978.63
2022-11-05T03:03:36.577Z,98979.75
2022-11-05T03:04:11.938Z,98978.97
2022-11-05T03:04:43.781Z,98982.59
2022-11-05T03:05:15.631Z,98974.53
2022-11-05T03:06:22.462Z,98980.13
2022-11-05T03:07:20.389Z,98977.06
2022-11-05T03:08:01.506Z,98976.03
2022-11-05T03:08:54.487Z,98977.38
2022-11-05T03:09:26.594Z,98972.37
2022-11-05T03:10:04.668Z,98978.75
2022-11-05T03:10:57.914Z,98977.28
2022-11-05T03:11:32.897Z,98981.16
2022-11-05T03:12:29.036Z,98977.63
2022-11-05T03:13:23.098Z,98978.88
2022-11-05T03:14:20.498Z,98969.56
2022-11-05T03:15:11.408Z,98969.91
2022-11-05T03:15:57.249Z,98969.81
2022-11-05T03:16:59.883Z,98964.47
2022-11-05T03:17:52.502Z,98977.28
2022-11-05T03:18:47.604Z,98973.84
2022-11-05T03:19:39.946Z,98967.94
2022-11-05T03:20:25.792Z,98973.41
2022-11-05T03:21:17.972Z,98977.94
2022-11-05T03:22:06.466Z,98980.66
2022-11-05T03:23:00.658Z,98979.41
2022-11-05T03:23:47.048Z,98985.31
2022-11-05T03:24:28.360Z,98995.53
2022-11-05T03:25:07.290Z,98989.16
2022-11-05T03:25:53.826Z,98993.16
2022-11-05T03:26:33.580Z,98995.19
2022-11-05T03:27:23.863Z,99003.03
2022-11-05T03:28:00.563Z,99003.00
2022-11-05T03:28:36.557Z,99001.56
2022-11-05T03:29:32.903Z,99005.63
2022-11-05T03:30:10.624Z,99009.69
2022-11-05T03:30:44.746Z,99013.91
2022-11-05T03:31:18.322Z,99010.50
2022-11-05T03:31:53.588Z,99016.06
2022-11-05T03:32:27.287Z,99016.63
2022-11-05T03:33:03.594Z,99014.59
2022-11-05T03:33:38.581Z,99007.22
2022-11-05T03:34:12.736Z,99016.53
2022-11-05T03:34:51.721Z,99016.41
2022-11-05T03:35:28.642Z,99014.03
2022-11-05T03:36:06.458Z,99013.34
2022-11-05T03:36:44.368Z,99018.22
2022-11-05T03:37:20.134Z,99013.09
2022-11-05T03:37:57.241Z,99014.12
2022-11-05T03:38:34.174Z,99013.88
2022-11-05T03:39:10.968Z,99021.94
2022-11-05T03:39:47.526Z,99017.97
2022-11-05T03:40:23.495Z,99008.69
2022-11-05T03:40:59.643Z,99022.97
2022-11-05T03:41:34.433Z,99016.16
2022-11-05T03:42:09.939Z,99014.66
2022-11-05T03:42:47.301Z,99014.66
2022-11-05T03:43:22.175Z,99018.22
2022-11-05T03:43:59.479Z,99020.00
2022-11-05T03:44:36.612Z,99021.03
2022-11-05T03:45:16.273Z,99024.22
2022-11-05T03:45:53.854Z,99021.03
2022-11-05T03:46:30.436Z,99020.47
2022-11-05T03:47:06.918Z,99017.72
2022-11-05T03:47:43.061Z,99022.75
2022-11-05T03:48:16.896Z,99022.16
2022-11-05T03:48:52.996Z,99023.19
2022-11-05T03:49:33.190Z,99020.56
2022-11-05T03:50:16.179Z,99018.53
2022-11-05T03:50:59.620Z,99030.56
2022-11-05T03:52:00.782Z,99028.66
2022-11-05T03:52:40.178Z,99027.97
2022-11-05T03:53:24.005Z,99034.41
2022-11-05T03:54:02.643Z,99032.59
2022-11-05T03:54:35.105Z,99033.50
2022-11-05T03:55:07.396Z,99039.63
2022-11-05T03:56:04.425Z,99031.34
2022-11-05T03:56:42.441Z,99036.69
2022-11-05T03:57:17.081Z,99030.03
2022-11-05T03:57:51.596Z,99037.16
2022-11-05T03:58:24.869Z,99029.44
2022-11-05T03:58:59.392Z,99037.84
2022-11-05T03:59:32.771Z,99028.53
2022-11-05T04:00:08.377Z,99030.56
2022-11-05T04:00:43.493Z,99031.59
2022-11-05T04:01:16.270Z,99027.28
2022-11-05T04:01:49.385Z,99036.38
2022-11-05T04:02:25.915Z,99033.72
2022-11-05T04:02:58.012Z,99033.37
2022-11-05T04:03:36.212Z,99032.94
2022-11-05T04:04:09.509Z,99026.94
2022-11-05T04:04:41.763Z,99032.03
2022-11-05T04:05:13.846Z,99022.84
2022-11-05T04:06:06.058Z,99027.22
2022-11-05T04:06:56.926Z,99031.69
2022-11-05T04:07:47.320Z,99034.88
2022-11-05T04:08:37.848Z,99033.06
2022-11-05T04:09:29.236Z,99031.25
2022-11-05T04:10:19.490Z,99031.28
2022-11-05T04:11:09.936Z,99032.28
2022-11-05T04:12:00.843Z,99025.94
2022-11-05T04:12:51.257Z,99023.44
2022-11-05T04:13:25.853Z,99018.19
2022-11-05T04:13:57.695Z,99026.94
2022-11-05T04:14:30.882Z,99017.50
2022-11-05T04:15:02.974Z,99023.97
2022-11-05T04:15:54.768Z,99017.03
2022-11-05T04:16:45.175Z,99014.75
2022-11-05T04:17:17.291Z,99009.66
2022-11-05T04:17:49.116Z,99011.00
2022-11-05T04:18:21.034Z,99014.19
2022-11-05T04:18:52.866Z,99007.50
2022-11-05T04:19:43.407Z,99012.97
2022-11-05T04:20:33.934Z,99008.78
2022-11-05T04:21:25.670Z,99010.03
2022-11-05T04:22:16.003Z,99011.81
2022-11-05T04:23:07.062Z,99011.28
2022-11-05T04:23:57.510Z,99009.34
2022-11-05T04:24:29.324Z,99004.47
2022-11-05T04:25:01.131Z,98998.22
2022-11-05T04:25:33.074Z,98996.28
2022-11-05T04:26:05.022Z,98996.16
2022-11-05T04:26:43.669Z,99002.16
2022-11-05T04:27:15.547Z,99002.75
2022-11-05T04:27:48.159Z,99001.78
2022-11-05T04:28:20.295Z,99002.84
2022-11-05T04:29:11.298Z,99006.22
2022-11-05T04:30:01.721Z,99003.41
2022-11-05T04:30:33.542Z,99008.09
2022-11-05T04:31:05.479Z,99011.34
2022-11-05T04:31:38.049Z,99010.78
2022-11-05T04:32:09.876Z,99010.44
2022-11-05T04:32:41.744Z,99005.09
2022-11-05T04:33:15.810Z,99010.31
2022-11-05T04:33:47.976Z,99011.91
2022-11-05T04:34:21.989Z,99001.94
2022-11-05T04:34:53.963Z,99004.78
2022-11-05T04:35:28.094Z,99007.38
2022-11-05T04:36:00.338Z,99000.94
2022-11-05T04:36:32.164Z,99003.75
2022-11-05T04:37:04.062Z,98999.56
2022-11-05T04:37:35.889Z,98992.97
2022-11-05T04:38:11.117Z,99000.22
2022-11-05T04:38:43.001Z,98999.75
2022-11-05T04:39:16.043Z,98993.19
2022-11-05T04:39:47.858Z,98999.50
2022-11-05T04:40:19.746Z,99001.66
2022-11-05T04:40:51.532Z,99004.47
2022-11-05T04:41:23.744Z,99004.13
2022-11-05T04:41:55.567Z,99000.75
2022-11-05T04:42:28.252Z,99007.09
2022-11-05T04:43:01.005Z,98999.62
2022-11-05T04:43:32.827Z,99002.00
2022-11-05T04:44:04.666Z,98999.19
2022-11-05T04:44:37.126Z,99004.28
2022-11-05T04:45:09.018Z,99001.25
2022-11-05T04:45:41.199Z,99002.84
2022-11-05T04:46:13.073Z,98997.41
2022-11-05T04:46:44.975Z,98997.66
2022-11-05T04:47:16.804Z,98999.47
2022-11-05T04:47:48.810Z,99004.19
2022-11-05T04:48:20.719Z,98998.75
2022-11-05T04:48:52.521Z,98994.47
2022-11-05T04:49:24.368Z,98997.19
2022-11-05T04:49:56.576Z,98989.69
2022-11-05T04:50:28.579Z,98998.84
2022-11-05T04:51:00.511Z,98994.22
2022-11-05T04:51:32.369Z,98998.28
2022-11-05T04:52:04.233Z,98994.41
2022-11-05T04:52:36.199Z,98993.72
2022-11-05T04:53:08.207Z,99002.50
2022-11-05T04:53:40.221Z,99003.84
2022-11-05T04:54:12.072Z,99005.66
2022-11-05T04:54:44.135Z,98996.00
2022-11-05T04:55:16.342Z,99002.37
2022-11-05T04:55:48.163Z,99000.09
2022-11-05T04:56:22.478Z,98998.97
2022-11-05T04:56:54.276Z,98997.41
2022-11-05T04:57:26.099Z,98993.63
2022-11-05T04:57:57.936Z,99001.47
2022-11-05T04:58:29.782Z,98998.19
2022-11-05T04:59:01.637Z,98999.31
2022-11-05T04:59:33.425Z,99003.75
2022-11-05T05:00:07.409Z,99001.69
2022-11-05T05:00:39.752Z,98995.78
2022-11-05T05:01:14.657Z,99006.81
2022-11-05T05:01:46.576Z,98999.56
2022-11-05T05:02:18.469Z,99006.94
2022-11-05T05:02:50.467Z,99004.91
2022-11-05T05:03:22.333Z,99005.03
2022-11-05T05:03:54.734Z,99004.56
2022-11-05T05:04:26.562Z,99002.75
2022-11-05T05:04:58.448Z,99010.81
2022-11-05T05:05:30.652Z,99005.34
2022-11-05T05:06:04.177Z,99011.56
2022-11-05T05:06:36.485Z,99015.22
2022-11-05T05:07:08.282Z,99009.09
2022-11-05T05:07:41.145Z,99017.94
2022-11-05T05:08:13.002Z,99014.31
2022-11-05T05:08:46.808Z,99015.00
2022-11-05T05:09:18.627Z,99016.59
2022-11-05T05:09:50.608Z,99016.16
2022-11-05T05:10:22.434Z,99019.09
2022-11-05T05:10:54.306Z,99022.03
2022-11-05T05:11:26.483Z,99017.16
2022-11-05T05:11:58.325Z,99015.13
2022-11-05T05:12:30.161Z,99016.28
2022-11-05T05:13:01.969Z,99015.81
2022-11-05T05:13:34.488Z,99016.16
2022-11-05T05:14:06.331Z,99013.00
2022-11-05T05:14:38.288Z,99015.81
2022-11-05T05:15:10.124Z,99015.50
2022-11-05T05:15:41.990Z,99016.53
2022-11-05T05:16:25.295Z,99012.09
2022-11-05T05:16:57.399Z,99012.53
2022-11-05T05:17:29.207Z,99016.72
2022-11-05T05:18:01.216Z,99016.03
2022-11-05T05:18:33.489Z,99013.62
2022-11-05T05:19:05.395Z,99014.09
2022-11-05T05:19:57.167Z,99010.81
2022-11-05T05:20:47.548Z,99015.25
2022-11-05T05:21:39.725Z,99011.81
2022-11-05T05:22:11.851Z,99015.50
2022-11-05T05:22:43.694Z,99018.19
2022-11-05T05:23:15.495Z,99017.72
2022-11-05T05:23:48.560Z,99014.47
2022-11-05T05:24:21.224Z,99023.53
2022-11-05T05:24:53.263Z,99027.59
2022-11-05T05:25:25.451Z,99018.66
2022-11-05T05:26:00.505Z,99016.72
2022-11-05T05:26:32.350Z,99017.16
2022-11-05T05:27:04.200Z,99017.97
2022-11-05T05:27:36.368Z,99017.84
2022-11-05T05:28:08.183Z,99023.88
2022-11-05T05:28:40.065Z,99019.34
2022-11-05T05:29:12.441Z,99024.22
2022-11-05T05:29:44.334Z,99017.41
2022-11-05T05:30:16.296Z,99022.28
2022-11-05T05:30:48.133Z,99013.88
2022-11-05T05:31:20.837Z,99026.34
2022-11-05T05:31:52.627Z,99017.28
2022-11-05T05:32:25.889Z,99017.53
2022-11-05T05:33:01.989Z,99020.59
2022-11-05T05:33:33.874Z,99018.41
2022-11-05T05:34:06.769Z,99025.09
2022-11-05T05:34:38.571Z,99011.44
2022-11-05T05:35:10.524Z,99020.50
2022-11-05T05:35:42.326Z,99016.41
2022-11-05T05:36:14.323Z,99013.22
2022-11-05T05:36:46.211Z,99014.94
2022-11-05T05:37:18.350Z,99014.28
2022-11-05T05:37:55.213Z,99017.37
2022-11-05T05:38:28.012Z,99013.50
2022-11-05T05:38:59.876Z,99018.97
2022-11-05T05:39:31.693Z,99014.09
2022-11-05T05:40:03.558Z,99016.91
2022-11-05T05:40:35.615Z,99017.50
2022-11-05T05:41:07.427Z,99021.66
2022-11-05T05:41:39.443Z,99019.16
2022-11-05T05:42:12.130Z,99014.28
2022-11-05T05:42:43.919Z,99021.22
2022-11-05T05:43:15.799Z,99013.25
2022-11-05T05:43:47.979Z,99017.91
2022-11-05T05:44:19.881Z,99018.28
2022-11-05T05:44:51.741Z,99020.56
2022-11-05T05:45:24.215Z,99021.59
2022-11-05T05:45:57.376Z,99022.50
2022-11-05T05:46:29.209Z,99023.41
2022-11-05T05:47:01.023Z,99028.03
2022-11-05T05:47:32.869Z,99026.00
2022-11-05T05:48:05.387Z,99023.75
2022-11-05T05:48:37.498Z,99027.34
2022-11-05T05:49:12.470Z,99021.72
2022-11-05T05:49:44.560Z,99017.72
2022-11-05T05:50:16.474Z,99026.69
2022-11-05T05:51:05.104Z,99020.09
2022-11-05T05:51:37.125Z,99033.19
2022-11-05T05:52:08.959Z,99026.34
2022-11-05T05:52:40.771Z,99028.28
2022-11-05T05:53:12.950Z,99035.66
2022-11-05T05:53:45.380Z,99030.25
2022-11-05T05:54:17.542Z,99030.56
2022-11-05T05:54:49.446Z,99027.97
2022-11-05T05:55:21.338Z,99034.53
2022-11-05T05:55:54.387Z,99033.06
2022-11-05T05:56:26.237Z,99032.37
2022-11-05T05:56:58.043Z,99030.56
2022-11-05T05:57:29.885Z,99024.91
2022-11-05T05:58:01.707Z,99024.56
2022-11-05T05:58:37.043Z,99029.66
2022-11-05T05:59:08.891Z,99031.25
2022-11-05T05:59:41.017Z,99030.66
2022-11-05T06:00:13.846Z,99035.28
2022-11-05T06:00:46.351Z,99030.44
2022-11-05T06:01:19.849Z,99031.69
2022-11-05T06:01:52.278Z,99038.81
2022-11-05T06:02:24.335Z,99036.44
2022-11-05T06:02:56.618Z,99036.44
2022-11-05T06:03:28.528Z,99043.38
2022-11-05T06:04:00.382Z,99042.81
2022-11-05T06:04:32.223Z,99044.41
2022-11-05T06:05:04.262Z,99048.72
2022-11-05T06:05:36.093Z,99054.38
2022-11-05T06:06:15.411Z,99055.53
2022-11-05T06:06:47.427Z,99054.38
2022-11-05T06:07:19.222Z,99056.41
2022-11-05T06:07:58.041Z,99054.13
2022-11-05T06:08:30.301Z,99064.00
2022-11-05T06:09:02.241Z,99064.50
2022-11-05T06:09:34.060Z,99062.66
2022-11-05T06:10:06.417Z,99059.03
2022-11-05T06:10:38.447Z,99064.25
2022-11-05T06:11:12.491Z,99064.13
2022-11-05T06:11:44.540Z,99057.34
2022-11-05T06:12:16.359Z,99075.34
2022-11-05T06:12:48.266Z,99063.44
2022-11-05T06:13:20.230Z,99074.56
2022-11-05T06:13:52.079Z,99067.91
2022-11-05T06:14:23.931Z,99076.16
2022-11-05T06:14:55.846Z,99073.25
2022-11-05T06:15:30.536Z,99078.91
2022-11-05T06:16:08.500Z,99079.09
2022-11-05T06:16:40.928Z,99077.50
2022-11-05T06:17:12.739Z,99081.38
2022-11-05T06:17:44.946Z,99086.50
2022-11-05T06:18:16.871Z,99087.66
2022-11-05T06:18:49.375Z,99093.22
2022-11-05T06:19:21.294Z,99090.47
2022-11-05T06:19:53.136Z,99096.16
2022-11-05T06:20:24.968Z,99094.13
2022-11-05T06:21:01.911Z,99090.06
2022-11-05T06:21:34.809Z,99091.63
2022-11-05T06:22:06.991Z,99097.31
2022-11-05T06:22:39.220Z,99100.56
2022-11-05T06:23:11.285Z,99088.19
2022-11-05T06:23:45.207Z,99091.31
2022-11-05T06:24:17.026Z,99096.16
2022-11-05T06:24:48.889Z,99087.41
2022-11-05T06:25:20.736Z,99088.06
2022-11-05T06:25:52.541Z,99094.00
2022-11-05T06:26:24.372Z,99101.16
2022-11-05T06:26:56.197Z,99105.62
2022-11-05T06:27:31.958Z,99095.50
2022-11-05T06:28:03.905Z,99100.72
2022-11-05T06:28:36.205Z,99092.41
2022-11-05T06:29:08.618Z,99090.50
2022-11-05T06:29:40.576Z,99098.88
2022-11-05T06:30:13.276Z,99093.41
2022-11-05T06:30:51.728Z,99096.25
2022-11-05T06:31:24.026Z,99100.59
2022-11-05T06:31:55.840Z,99099.25
2022-11-05T06:32:27.832Z,99099.16
2022-11-05T06:33:05.919Z,99100.09
2022-11-05T06:33:38.351Z,99104.75
2022-11-05T06:34:10.361Z,99105.19
2022-11-05T06:34:42.176Z,99100.41
2022-11-05T06:35:14.203Z,99096.53
2022-11-05T06:35:46.346Z,99109.56
2022-11-05T06:36:19.299Z,99092.88
2022-11-05T06:36:51.115Z,99100.44
2022-11-05T06:37:22.932Z,99101.37
2022-11-05T06:37:59.487Z,99102.03
2022-11-05T06:38:34.062Z,99109.13
2022-11-05T06:39:09.734Z,99107.94
2022-11-05T06:39:41.590Z,99107.47
2022-11-05T06:40:13.428Z,99114.94
2022-11-05T06:40:45.262Z,99111.19
2022-11-05T06:41:17.107Z,99116.31
2022-11-05T06:42:18.036Z,99095.88
2022-11-05T06:42:41.512Z,99098.72
2022-11-05T06:43:13.730Z,99105.47
2022-11-05T06:43:46.206Z,99108.06
2022-11-05T06:44:18.045Z,99109.37
2022-11-05T06:44:50.060Z,99111.97
2022-11-05T06:45:22.132Z,99102.78
2022-11-05T06:45:54.858Z,99110.66
2022-11-05T06:46:26.740Z,99111.22
2022-11-05T06:46:58.614Z,99109.19
2022-11-05T06:47:30.476Z,99110.56
2022-11-05T06:48:02.328Z,99111.00
2022-11-05T06:48:34.412Z,99107.03
2022-11-05T06:49:06.530Z,99110.94
2022-11-05T06:49:38.355Z,99108.72
2022-11-05T06:50:10.238Z,99105.53
2022-11-05T06:50:45.849Z,99104.81
2022-11-05T06:51:17.711Z,99110.59
2022-11-05T06:51:49.581Z,99104.38
2022-11-05T06:52:21.392Z,99109.03
2022-11-05T06:53:04.084Z,99109.94
2022-11-05T06:53:36.544Z,99107.56
2022-11-05T06:54:09.027Z,99110.47
2022-11-05T06:54:42.396Z,99107.22
2022-11-05T06:55:14.232Z,99104.94
2022-11-05T06:55:47.945Z,99106.09
2022-11-05T06:56:19.799Z,99106.44
2022-11-05T06:56:51.659Z,99107.81
2022-11-05T06:57:23.499Z,99114.66
2022-11-05T06:57:55.782Z,99107.63
2022-11-05T06:58:27.632Z,99107.97
2022-11-05T06:58:59.525Z,99110.44
2022-11-05T06:59:32.131Z,99106.38
2022-11-05T07:00:07.819Z,99111.31
2022-11-05T07:00:40.551Z,99113.56
2022-11-05T07:01:12.569Z,99109.81
2022-11-05T07:01:44.480Z,99116.84
2022-11-05T07:02:18.020Z,99106.41
2022-11-05T07:02:50.142Z,99109.56
2022-11-05T07:03:21.984Z,99115.25
2022-11-05T07:03:53.820Z,99112.50
2022-11-05T07:04:25.673Z,99113.22
2022-11-05T07:04:57.802Z,99113.56
2022-11-05T07:05:29.810Z,99106.31
2022-11-05T07:06:03.085Z,99104.94
2022-11-05T07:06:37.102Z,99110.28
2022-11-05T07:07:09.337Z,99106.97
2022-11-05T07:07:42.964Z,99119.22
2022-11-05T07:08:15.598Z,99112.19
2022-11-05T07:08:47.447Z,99112.78
2022-11-05T07:09:19.357Z,99110.16
2022-11-05T07:09:52.775Z,99112.41
2022-11-05T07:10:25.078Z,99111.50
2022-11-05T07:10:57.005Z,99109.56
2022-11-05T07:11:28.823Z,99116.72
2022-11-05T07:12:00.651Z,99114.91
2022-11-05T07:12:32.476Z,99117.13
2022-11-05T07:13:08.152Z,99100.25
2022-11-05T07:13:40.613Z,99103.44